Los Angeles, California
Traffic Map
Current Weather Conditions
Los Angeles, California
Clear
Clear
87°
Feels Like: 90°
Wind Chill: 87° Ceiling: Unl
Heat Index: 90° Visibility: 10mi
Dew Point: 67° Wind: 0mph
Humidity: 51% Direction: ° ()
Pressure: 29.88in Gusts: 0mph
Raw Report DataKCQT 301947Z AUTO 00000KT 10SM CLR 31/19 A2988 RMK AO2 SLP115 T03060194
Traffic Incident Summary
Active as of:
Severity:
Category:
InformationThere was an issue retrieving the traffic information for this location. Please try a different location or try again shortly.
Advertisements
Track Severe Weather on mobile